sensor_id;sensor_type;location;lat;lon;timestamp;P1;durP1;ratioP1;P2;durP2;ratioP2
54937;SDS011;52756;52.826;6.214;2023-06-04T00:00:43;2.40;;;0.95;;
54937;SDS011;52756;52.826;6.214;2023-06-04T00:03:09;2.15;;;1.27;;
54937;SDS011;52756;52.826;6.214;2023-06-04T00:05:34;2.60;;;0.98;;
54937;SDS011;52756;52.826;6.214;2023-06-04T00:08:00;2.17;;;0.70;;
54937;SDS011;52756;52.826;6.214;2023-06-04T00:10:26;2.08;;;0.90;;
54937;SDS011;52756;52.826;6.214;2023-06-04T00:12:51;3.72;;;1.50;;
54937;SDS011;52756;52.826;6.214;2023-06-04T00:15:17;3.63;;;1.20;;
54937;SDS011;52756;52.826;6.214;2023-06-04T00:17:43;2.35;;;1.25;;
54937;SDS011;52756;52.826;6.214;2023-06-04T00:20:09;3.13;;;1.23;;
54937;SDS011;52756;52.826;6.214;2023-06-04T00:22:35;2.58;;;1.20;;
54937;SDS011;52756;52.826;6.214;2023-06-04T00:25:01;2.80;;;1.13;;
54937;SDS011;52756;52.826;6.214;2023-06-04T00:27:28;2.70;;;1.13;;
54937;SDS011;52756;52.826;6.214;2023-06-04T00:29:53;2.75;;;1.50;;
54937;SDS011;52756;52.826;6.214;2023-06-04T00:32:20;4.85;;;1.40;;
54937;SDS011;52756;52.826;6.214;2023-06-04T00:34:52;2.17;;;1.02;;
54937;SDS011;52756;52.826;6.214;2023-06-04T00:37:23;2.83;;;1.35;;
54937;SDS011;52756;52.826;6.214;2023-06-04T00:39:49;2.78;;;1.38;;
54937;SDS011;52756;52.826;6.214;2023-06-04T00:42:16;3.08;;;1.20;;
54937;SDS011;52756;52.826;6.214;2023-06-04T00:44:42;4.85;;;1.45;;
54937;SDS011;52756;52.826;6.214;2023-06-04T00:47:13;4.18;;;1.42;;
54937;SDS011;52756;52.826;6.214;2023-06-04T00:49:43;4.00;;;1.55;;
54937;SDS011;52756;52.826;6.214;2023-06-04T00:52:10;3.05;;;1.35;;
54937;SDS011;52756;52.826;6.214;2023-06-04T00:54:40;2.40;;;1.10;;
54937;SDS011;52756;52.826;6.214;2023-06-04T00:57:06;2.33;;;1.23;;
54937;SDS011;52756;52.826;6.214;2023-06-04T00:59:33;2.22;;;1.10;;
54937;SDS011;52756;52.826;6.214;2023-06-04T01:02:06;2.92;;;1.58;;
54937;SDS011;52756;52.826;6.214;2023-06-04T01:07:13;2.00;;;1.08;;
54937;SDS011;52756;52.826;6.214;2023-06-04T01:09:40;2.42;;;1.00;;
54937;SDS011;52756;52.826;6.214;2023-06-04T01:12:10;3.05;;;1.20;;
54937;SDS011;52756;52.826;6.214;2023-06-04T01:14:37;2.85;;;1.75;;
54937;SDS011;52756;52.826;6.214;2023-06-04T01:17:17;2.92;;;1.58;;
54937;SDS011;52756;52.826;6.214;2023-06-04T01:20:02;2.38;;;1.30;;
54937;SDS011;52756;52.826;6.214;2023-06-04T01:25:15;3.67;;;1.42;;
54937;SDS011;52756;52.826;6.214;2023-06-04T01:27:54;3.00;;;1.33;;
54937;SDS011;52756;52.826;6.214;2023-06-04T01:30:26;3.13;;;1.70;;
54937;SDS011;52756;52.826;6.214;2023-06-04T01:32:56;5.00;;;1.50;;
54937;SDS011;52756;52.826;6.214;2023-06-04T01:35:23;3.97;;;1.58;;
54937;SDS011;52756;52.826;6.214;2023-06-04T01:37:50;3.75;;;1.52;;
54937;SDS011;52756;52.826;6.214;2023-06-04T01:40:16;3.28;;;1.55;;
54937;SDS011;52756;52.826;6.214;2023-06-04T01:42:42;4.32;;;1.63;;
54937;SDS011;52756;52.826;6.214;2023-06-04T01:45:08;3.65;;;1.42;;
54937;SDS011;52756;52.826;6.214;2023-06-04T01:47:35;4.72;;;1.85;;
54937;SDS011;52756;52.826;6.214;2023-06-04T01:50:01;2.92;;;1.50;;
54937;SDS011;52756;52.826;6.214;2023-06-04T01:52:30;3.63;;;1.70;;
54937;SDS011;52756;52.826;6.214;2023-06-04T01:54:56;2.80;;;1.50;;
54937;SDS011;52756;52.826;6.214;2023-06-04T01:57:23;4.68;;;2.30;;
54937;SDS011;52756;52.826;6.214;2023-06-04T01:59:49;3.95;;;1.80;;
54937;SDS011;52756;52.826;6.214;2023-06-04T02:02:16;5.00;;;1.80;;
54937;SDS011;52756;52.826;6.214;2023-06-04T02:04:41;4.93;;;2.25;;
54937;SDS011;52756;52.826;6.214;2023-06-04T02:07:11;3.58;;;1.80;;
54937;SDS011;52756;52.826;6.214;2023-06-04T02:09:39;4.50;;;1.50;;
54937;SDS011;52756;52.826;6.214;2023-06-04T02:12:05;6.65;;;2.47;;
54937;SDS011;52756;52.826;6.214;2023-06-04T02:14:31;3.53;;;1.90;;
54937;SDS011;52756;52.826;6.214;2023-06-04T02:16:57;6.82;;;2.22;;
54937;SDS011;52756;52.826;6.214;2023-06-04T02:19:26;5.43;;;2.20;;
54937;SDS011;52756;52.826;6.214;2023-06-04T02:21:52;4.97;;;2.42;;
54937;SDS011;52756;52.826;6.214;2023-06-04T02:24:18;4.25;;;1.70;;
54937;SDS011;52756;52.826;6.214;2023-06-04T02:26:45;5.18;;;2.10;;
54937;SDS011;52756;52.826;6.214;2023-06-04T02:29:11;3.83;;;1.85;;
54937;SDS011;52756;52.826;6.214;2023-06-04T02:31:37;3.55;;;2.05;;
54937;SDS011;52756;52.826;6.214;2023-06-04T02:34:03;3.72;;;1.90;;
54937;SDS011;52756;52.826;6.214;2023-06-04T02:36:28;4.75;;;2.10;;
54937;SDS011;52756;52.826;6.214;2023-06-04T02:38:55;4.30;;;2.30;;
54937;SDS011;52756;52.826;6.214;2023-06-04T02:41:21;3.50;;;1.90;;
54937;SDS011;52756;52.826;6.214;2023-06-04T02:43:48;5.18;;;1.90;;
54937;SDS011;52756;52.826;6.214;2023-06-04T02:46:13;5.82;;;1.88;;
54937;SDS011;52756;52.826;6.214;2023-06-04T02:48:39;4.35;;;1.80;;
54937;SDS011;52756;52.826;6.214;2023-06-04T02:51:05;4.72;;;1.92;;
54937;SDS011;52756;52.826;6.214;2023-06-04T02:53:30;4.75;;;1.73;;
54937;SDS011;52756;52.826;6.214;2023-06-04T02:55:56;2.90;;;1.75;;
54937;SDS011;52756;52.826;6.214;2023-06-04T02:58:24;4.40;;;1.65;;
54937;SDS011;52756;52.826;6.214;2023-06-04T03:00:52;4.72;;;1.70;;
54937;SDS011;52756;52.826;6.214;2023-06-04T03:03:17;4.70;;;2.00;;
54937;SDS011;52756;52.826;6.214;2023-06-04T03:05:43;4.22;;;1.85;;
54937;SDS011;52756;52.826;6.214;2023-06-04T03:08:09;4.28;;;1.80;;
54937;SDS011;52756;52.826;6.214;2023-06-04T03:10:34;5.20;;;1.60;;
54937;SDS011;52756;52.826;6.214;2023-06-04T03:13:00;4.43;;;2.00;;
54937;SDS011;52756;52.826;6.214;2023-06-04T03:15:26;4.88;;;1.95;;
54937;SDS011;52756;52.826;6.214;2023-06-04T03:17:51;4.05;;;1.80;;
54937;SDS011;52756;52.826;6.214;2023-06-04T03:20:17;6.15;;;2.05;;
54937;SDS011;52756;52.826;6.214;2023-06-04T03:22:43;4.95;;;2.22;;
54937;SDS011;52756;52.826;6.214;2023-06-04T03:25:09;3.80;;;1.83;;
54937;SDS011;52756;52.826;6.214;2023-06-04T03:27:34;5.00;;;2.10;;
54937;SDS011;52756;52.826;6.214;2023-06-04T03:30:01;5.38;;;1.80;;
54937;SDS011;52756;52.826;6.214;2023-06-04T03:32:29;3.70;;;1.50;;
54937;SDS011;52756;52.826;6.214;2023-06-04T03:34:55;3.83;;;1.73;;
54937;SDS011;52756;52.826;6.214;2023-06-04T03:37:21;5.03;;;2.00;;
54937;SDS011;52756;52.826;6.214;2023-06-04T03:39:46;6.00;;;1.90;;
54937;SDS011;52756;52.826;6.214;2023-06-04T03:42:12;4.15;;;2.13;;
54937;SDS011;52756;52.826;6.214;2023-06-04T03:44:38;3.38;;;1.90;;
54937;SDS011;52756;52.826;6.214;2023-06-04T03:47:03;3.88;;;1.90;;
54937;SDS011;52756;52.826;6.214;2023-06-04T03:49:29;6.50;;;2.75;;
54937;SDS011;52756;52.826;6.214;2023-06-04T03:51:55;5.90;;;2.25;;
54937;SDS011;52756;52.826;6.214;2023-06-04T03:54:21;4.80;;;2.10;;
54937;SDS011;52756;52.826;6.214;2023-06-04T03:56:47;4.60;;;2.00;;
54937;SDS011;52756;52.826;6.214;2023-06-04T03:59:13;4.38;;;2.08;;
54937;SDS011;52756;52.826;6.214;2023-06-04T04:01:39;5.85;;;2.10;;
54937;SDS011;52756;52.826;6.214;2023-06-04T04:04:05;6.75;;;2.40;;
54937;SDS011;52756;52.826;6.214;2023-06-04T04:06:31;4.60;;;1.88;;
54937;SDS011;52756;52.826;6.214;2023-06-04T04:08:56;5.05;;;2.28;;
54937;SDS011;52756;52.826;6.214;2023-06-04T04:11:23;4.35;;;2.30;;
54937;SDS011;52756;52.826;6.214;2023-06-04T04:13:49;4.82;;;2.05;;
54937;SDS011;52756;52.826;6.214;2023-06-04T04:16:14;4.72;;;2.67;;
54937;SDS011;52756;52.826;6.214;2023-06-04T04:18:41;4.60;;;2.30;;
54937;SDS011;52756;52.826;6.214;2023-06-04T04:21:11;6.95;;;2.90;;
54937;SDS011;52756;52.826;6.214;2023-06-04T04:23:37;5.63;;;2.45;;
54937;SDS011;52756;52.826;6.214;2023-06-04T04:26:07;5.05;;;2.97;;
54937;SDS011;52756;52.826;6.214;2023-06-04T04:28:35;6.60;;;2.78;;
54937;SDS011;52756;52.826;6.214;2023-06-04T04:31:00;4.15;;;2.13;;
54937;SDS011;52756;52.826;6.214;2023-06-04T04:33:27;4.63;;;2.22;;
54937;SDS011;52756;52.826;6.214;2023-06-04T04:35:57;5.15;;;2.38;;
54937;SDS011;52756;52.826;6.214;2023-06-04T04:38:27;7.35;;;3.17;;
54937;SDS011;52756;52.826;6.214;2023-06-04T04:40:53;7.90;;;3.60;;
54937;SDS011;52756;52.826;6.214;2023-06-04T04:43:30;7.72;;;3.20;;
54937;SDS011;52756;52.826;6.214;2023-06-04T04:45:57;4.18;;;2.33;;
54937;SDS011;52756;52.826;6.214;2023-06-04T04:48:23;4.15;;;2.25;;
54937;SDS011;52756;52.826;6.214;2023-06-04T04:50:49;4.38;;;2.22;;
54937;SDS011;52756;52.826;6.214;2023-06-04T04:53:15;5.75;;;2.67;;
54937;SDS011;52756;52.826;6.214;2023-06-04T04:55:41;7.90;;;2.97;;
54937;SDS011;52756;52.826;6.214;2023-06-04T04:58:06;8.73;;;3.42;;
54937;SDS011;52756;52.826;6.214;2023-06-04T05:00:32;6.05;;;2.67;;
54937;SDS011;52756;52.826;6.214;2023-06-04T05:02:58;7.05;;;3.47;;
54937;SDS011;52756;52.826;6.214;2023-06-04T05:05:23;7.53;;;3.45;;
54937;SDS011;52756;52.826;6.214;2023-06-04T05:07:49;8.27;;;4.10;;
54937;SDS011;52756;52.826;6.214;2023-06-04T05:10:15;10.35;;;4.32;;
54937;SDS011;52756;52.826;6.214;2023-06-04T05:12:52;12.57;;;4.20;;
54937;SDS011;52756;52.826;6.214;2023-06-04T05:15:18;10.32;;;3.85;;
54937;SDS011;52756;52.826;6.214;2023-06-04T05:17:44;10.45;;;4.53;;
54937;SDS011;52756;52.826;6.214;2023-06-04T05:20:12;7.03;;;3.55;;
54937;SDS011;52756;52.826;6.214;2023-06-04T05:22:38;9.38;;;4.28;;
54937;SDS011;52756;52.826;6.214;2023-06-04T05:25:04;8.10;;;3.97;;
54937;SDS011;52756;52.826;6.214;2023-06-04T05:27:33;7.25;;;3.25;;
54937;SDS011;52756;52.826;6.214;2023-06-04T05:30:00;8.23;;;3.78;;
54937;SDS011;52756;52.826;6.214;2023-06-04T05:32:29;11.35;;;3.53;;
54937;SDS011;52756;52.826;6.214;2023-06-04T05:34:57;8.02;;;3.50;;
54937;SDS011;52756;52.826;6.214;2023-06-04T05:37:27;8.00;;;2.80;;
54937;SDS011;52756;52.826;6.214;2023-06-04T05:39:55;7.15;;;3.83;;
54937;SDS011;52756;52.826;6.214;2023-06-04T05:42:21;9.10;;;3.92;;
54937;SDS011;52756;52.826;6.214;2023-06-04T05:44:47;8.63;;;3.65;;
54937;SDS011;52756;52.826;6.214;2023-06-04T05:47:14;10.52;;;3.58;;
54937;SDS011;52756;52.826;6.214;2023-06-04T05:49:41;6.07;;;3.25;;
54937;SDS011;52756;52.826;6.214;2023-06-04T05:52:07;6.20;;;2.80;;
54937;SDS011;52756;52.826;6.214;2023-06-04T05:54:33;8.90;;;3.58;;
54937;SDS011;52756;52.826;6.214;2023-06-04T05:56:59;7.03;;;3.25;;
54937;SDS011;52756;52.826;6.214;2023-06-04T05:59:24;7.07;;;3.67;;
54937;SDS011;52756;52.826;6.214;2023-06-04T06:01:50;9.20;;;3.50;;
54937;SDS011;52756;52.826;6.214;2023-06-04T06:04:16;8.00;;;3.55;;
54937;SDS011;52756;52.826;6.214;2023-06-04T06:06:42;7.65;;;3.15;;
54937;SDS011;52756;52.826;6.214;2023-06-04T06:09:09;6.32;;;2.78;;
54937;SDS011;52756;52.826;6.214;2023-06-04T06:11:35;5.95;;;2.65;;
54937;SDS011;52756;52.826;6.214;2023-06-04T06:14:01;6.13;;;2.60;;
54937;SDS011;52756;52.826;6.214;2023-06-04T06:16:27;9.70;;;3.20;;
54937;SDS011;52756;52.826;6.214;2023-06-04T06:18:56;6.97;;;3.08;;
54937;SDS011;52756;52.826;6.214;2023-06-04T06:21:21;9.35;;;3.33;;
54937;SDS011;52756;52.826;6.214;2023-06-04T06:23:47;6.50;;;3.00;;
54937;SDS011;52756;52.826;6.214;2023-06-04T06:26:13;6.25;;;2.00;;
54937;SDS011;52756;52.826;6.214;2023-06-04T06:28:38;6.03;;;2.80;;
54937;SDS011;52756;52.826;6.214;2023-06-04T06:31:05;7.03;;;2.90;;
54937;SDS011;52756;52.826;6.214;2023-06-04T06:33:31;8.10;;;2.75;;
54937;SDS011;52756;52.826;6.214;2023-06-04T06:35:57;5.93;;;2.42;;
54937;SDS011;52756;52.826;6.214;2023-06-04T06:38:25;7.18;;;2.10;;
54937;SDS011;52756;52.826;6.214;2023-06-04T06:40:51;7.63;;;2.53;;
54937;SDS011;52756;52.826;6.214;2023-06-04T06:43:17;7.30;;;2.90;;
54937;SDS011;52756;52.826;6.214;2023-06-04T06:45:43;4.70;;;2.00;;
54937;SDS011;52756;52.826;6.214;2023-06-04T06:48:09;4.63;;;2.10;;
54937;SDS011;52756;52.826;6.214;2023-06-04T06:50:34;8.00;;;3.05;;
54937;SDS011;52756;52.826;6.214;2023-06-04T06:53:03;6.10;;;2.30;;
54937;SDS011;52756;52.826;6.214;2023-06-04T06:55:28;6.30;;;2.00;;
54937;SDS011;52756;52.826;6.214;2023-06-04T06:57:55;4.35;;;1.98;;
54937;SDS011;52756;52.826;6.214;2023-06-04T07:00:20;4.93;;;1.85;;
54937;SDS011;52756;52.826;6.214;2023-06-04T07:02:46;4.63;;;1.85;;
54937;SDS011;52756;52.826;6.214;2023-06-04T07:05:12;5.95;;;2.20;;
54937;SDS011;52756;52.826;6.214;2023-06-04T07:07:40;4.90;;;2.25;;
54937;SDS011;52756;52.826;6.214;2023-06-04T07:10:05;8.23;;;1.98;;
54937;SDS011;52756;52.826;6.214;2023-06-04T07:12:31;6.57;;;1.50;;
54937;SDS011;52756;52.826;6.214;2023-06-04T07:14:57;5.55;;;1.67;;
54937;SDS011;52756;52.826;6.214;2023-06-04T07:17:23;4.50;;;1.50;;
54937;SDS011;52756;52.826;6.214;2023-06-04T07:19:48;5.15;;;1.92;;
54937;SDS011;52756;52.826;6.214;2023-06-04T07:22:14;4.18;;;1.67;;
54937;SDS011;52756;52.826;6.214;2023-06-04T07:24:42;6.22;;;2.00;;
54937;SDS011;52756;52.826;6.214;2023-06-04T07:27:11;5.97;;;1.90;;
54937;SDS011;52756;52.826;6.214;2023-06-04T07:29:38;4.53;;;1.60;;
54937;SDS011;52756;52.826;6.214;2023-06-04T07:32:04;6.45;;;1.80;;
54937;SDS011;52756;52.826;6.214;2023-06-04T07:34:30;7.10;;;2.03;;
54937;SDS011;52756;52.826;6.214;2023-06-04T07:36:56;3.63;;;2.42;;
54937;SDS011;52756;52.826;6.214;2023-06-04T07:39:21;5.22;;;1.90;;
54937;SDS011;52756;52.826;6.214;2023-06-04T07:41:47;7.13;;;1.80;;
54937;SDS011;52756;52.826;6.214;2023-06-04T07:44:13;5.80;;;1.80;;
54937;SDS011;52756;52.826;6.214;2023-06-04T07:46:38;5.28;;;2.15;;
54937;SDS011;52756;52.826;6.214;2023-06-04T07:49:04;6.03;;;1.63;;
54937;SDS011;52756;52.826;6.214;2023-06-04T07:51:30;5.40;;;1.85;;
54937;SDS011;52756;52.826;6.214;2023-06-04T07:53:55;4.93;;;1.83;;
54937;SDS011;52756;52.826;6.214;2023-06-04T07:56:21;5.03;;;1.80;;
54937;SDS011;52756;52.826;6.214;2023-06-04T07:58:47;5.05;;;1.58;;
54937;SDS011;52756;52.826;6.214;2023-06-04T08:01:13;4.00;;;1.65;;
54937;SDS011;52756;52.826;6.214;2023-06-04T08:03:38;4.38;;;1.63;;
54937;SDS011;52756;52.826;6.214;2023-06-04T08:06:06;4.20;;;1.75;;
54937;SDS011;52756;52.826;6.214;2023-06-04T08:08:32;4.78;;;1.70;;
54937;SDS011;52756;52.826;6.214;2023-06-04T08:11:00;3.95;;;1.50;;
54937;SDS011;52756;52.826;6.214;2023-06-04T08:13:26;5.07;;;1.33;;
54937;SDS011;52756;52.826;6.214;2023-06-04T08:15:52;3.70;;;1.65;;
54937;SDS011;52756;52.826;6.214;2023-06-04T08:18:18;2.80;;;1.23;;
54937;SDS011;52756;52.826;6.214;2023-06-04T08:20:43;4.63;;;1.48;;
54937;SDS011;52756;52.826;6.214;2023-06-04T08:23:09;2.70;;;1.13;;
54937;SDS011;52756;52.826;6.214;2023-06-04T08:25:35;5.60;;;1.70;;
54937;SDS011;52756;52.826;6.214;2023-06-04T08:28:01;4.28;;;1.40;;
54937;SDS011;52756;52.826;6.214;2023-06-04T08:30:28;4.90;;;1.60;;
54937;SDS011;52756;52.826;6.214;2023-06-04T08:32:54;3.45;;;1.20;;
54937;SDS011;52756;52.826;6.214;2023-06-04T08:35:20;3.42;;;1.20;;
54937;SDS011;52756;52.826;6.214;2023-06-04T08:37:46;4.13;;;1.63;;
54937;SDS011;52756;52.826;6.214;2023-06-04T08:40:11;3.35;;;1.40;;
54937;SDS011;52756;52.826;6.214;2023-06-04T08:42:41;6.28;;;1.95;;
54937;SDS011;52756;52.826;6.214;2023-06-04T08:45:10;5.85;;;1.95;;
54937;SDS011;52756;52.826;6.214;2023-06-04T08:47:38;3.95;;;1.10;;
54937;SDS011;52756;52.826;6.214;2023-06-04T08:50:12;4.72;;;1.30;;
54937;SDS011;52756;52.826;6.214;2023-06-04T08:52:42;2.88;;;1.20;;
54937;SDS011;52756;52.826;6.214;2023-06-04T08:55:08;5.22;;;1.25;;
54937;SDS011;52756;52.826;6.214;2023-06-04T08:57:35;3.53;;;1.13;;
54937;SDS011;52756;52.826;6.214;2023-06-04T09:00:01;3.05;;;1.00;;
54937;SDS011;52756;52.826;6.214;2023-06-04T09:02:29;6.43;;;1.73;;
54937;SDS011;52756;52.826;6.214;2023-06-04T09:04:55;3.05;;;1.02;;
54937;SDS011;52756;52.826;6.214;2023-06-04T09:07:22;3.50;;;1.30;;
54937;SDS011;52756;52.826;6.214;2023-06-04T09:09:49;2.42;;;1.25;;
54937;SDS011;52756;52.826;6.214;2023-06-04T09:12:17;5.35;;;1.42;;
54937;SDS011;52756;52.826;6.214;2023-06-04T09:14:49;3.00;;;1.00;;
54937;SDS011;52756;52.826;6.214;2023-06-04T09:17:21;3.47;;;1.45;;
54937;SDS011;52756;52.826;6.214;2023-06-04T09:19:47;2.28;;;1.08;;
54937;SDS011;52756;52.826;6.214;2023-06-04T09:22:13;5.55;;;1.70;;
54937;SDS011;52756;52.826;6.214;2023-06-04T09:27:13;2.95;;;1.20;;
54937;SDS011;52756;52.826;6.214;2023-06-04T09:29:50;4.13;;;1.55;;
54937;SDS011;52756;52.826;6.214;2023-06-04T09:32:25;3.75;;;1.73;;
54937;SDS011;52756;52.826;6.214;2023-06-04T09:34:52;3.63;;;1.33;;
54937;SDS011;52756;52.826;6.214;2023-06-04T09:37:18;4.15;;;1.73;;
54937;SDS011;52756;52.826;6.214;2023-06-04T09:39:55;3.63;;;1.48;;
54937;SDS011;52756;52.826;6.214;2023-06-04T09:42:21;6.40;;;2.00;;
54937;SDS011;52756;52.826;6.214;2023-06-04T09:44:48;4.40;;;1.30;;
54937;SDS011;52756;52.826;6.214;2023-06-04T09:47:14;4.15;;;1.60;;
54937;SDS011;52756;52.826;6.214;2023-06-04T09:49:43;4.72;;;1.67;;
54937;SDS011;52756;52.826;6.214;2023-06-04T09:52:10;5.65;;;1.85;;
54937;SDS011;52756;52.826;6.214;2023-06-04T09:54:38;6.03;;;1.58;;
54937;SDS011;52756;52.826;6.214;2023-06-04T09:57:05;2.78;;;1.08;;
54937;SDS011;52756;52.826;6.214;2023-06-04T09:59:45;4.20;;;1.58;;
54937;SDS011;52756;52.826;6.214;2023-06-04T10:02:14;2.83;;;0.90;;
54937;SDS011;52756;52.826;6.214;2023-06-04T10:04:46;3.15;;;1.20;;
54937;SDS011;52756;52.826;6.214;2023-06-04T10:07:17;4.18;;;1.20;;
54937;SDS011;52756;52.826;6.214;2023-06-04T10:09:43;4.18;;;1.08;;
54937;SDS011;52756;52.826;6.214;2023-06-04T10:12:15;3.95;;;1.70;;
54937;SDS011;52756;52.826;6.214;2023-06-04T10:14:44;5.30;;;1.52;;
54937;SDS011;52756;52.826;6.214;2023-06-04T10:17:15;4.07;;;1.20;;
54937;SDS011;52756;52.826;6.214;2023-06-04T10:19:43;2.28;;;1.20;;
54937;SDS011;52756;52.826;6.214;2023-06-04T10:22:10;3.35;;;1.17;;
54937;SDS011;52756;52.826;6.214;2023-06-04T10:24:39;6.20;;;1.95;;
54937;SDS011;52756;52.826;6.214;2023-06-04T10:27:05;2.45;;;1.10;;
54937;SDS011;52756;52.826;6.214;2023-06-04T10:29:36;3.13;;;1.20;;
54937;SDS011;52756;52.826;6.214;2023-06-04T10:32:02;4.63;;;0.98;;
54937;SDS011;52756;52.826;6.214;2023-06-04T10:34:28;4.55;;;1.35;;
54937;SDS011;52756;52.826;6.214;2023-06-04T10:36:55;3.33;;;1.00;;
54937;SDS011;52756;52.826;6.214;2023-06-04T10:39:27;2.55;;;1.30;;
54937;SDS011;52756;52.826;6.214;2023-06-04T10:44:24;3.63;;;1.10;;
54937;SDS011;52756;52.826;6.214;2023-06-04T10:46:50;3.88;;;1.10;;
54937;SDS011;52756;52.826;6.214;2023-06-04T10:49:25;1.83;;;0.95;;
54937;SDS011;52756;52.826;6.214;2023-06-04T10:51:52;3.53;;;1.20;;
54937;SDS011;52756;52.826;6.214;2023-06-04T10:54:23;2.95;;;1.35;;
54937;SDS011;52756;52.826;6.214;2023-06-04T10:56:50;3.03;;;1.53;;
54937;SDS011;52756;52.826;6.214;2023-06-04T10:59:17;1.67;;;1.00;;
54937;SDS011;52756;52.826;6.214;2023-06-04T11:01:44;2.47;;;1.08;;
54937;SDS011;52756;52.826;6.214;2023-06-04T11:04:22;2.83;;;1.02;;
54937;SDS011;52756;52.826;6.214;2023-06-04T11:09:48;2.78;;;1.15;;
54937;SDS011;52756;52.826;6.214;2023-06-04T11:12:15;4.07;;;1.30;;
54937;SDS011;52756;52.826;6.214;2023-06-04T11:14:52;2.50;;;1.38;;
54937;SDS011;52756;52.826;6.214;2023-06-04T11:17:22;2.85;;;1.20;;
54937;SDS011;52756;52.826;6.214;2023-06-04T11:19:48;3.17;;;1.25;;
54937;SDS011;52756;52.826;6.214;2023-06-04T11:22:14;5.43;;;1.75;;
54937;SDS011;52756;52.826;6.214;2023-06-04T11:24:40;2.03;;;1.15;;
54937;SDS011;52756;52.826;6.214;2023-06-04T11:27:06;5.13;;;1.50;;
54937;SDS011;52756;52.826;6.214;2023-06-04T11:29:32;3.35;;;1.17;;
54937;SDS011;52756;52.826;6.214;2023-06-04T11:31:58;3.92;;;1.30;;
54937;SDS011;52756;52.826;6.214;2023-06-04T11:34:24;2.75;;;1.30;;
54937;SDS011;52756;52.826;6.214;2023-06-04T11:36:51;2.97;;;0.95;;
54937;SDS011;52756;52.826;6.214;2023-06-04T11:39:20;3.38;;;1.10;;
54937;SDS011;52756;52.826;6.214;2023-06-04T11:41:47;2.35;;;1.00;;
54937;SDS011;52756;52.826;6.214;2023-06-04T11:44:17;3.85;;;1.48;;
54937;SDS011;52756;52.826;6.214;2023-06-04T11:46:44;2.72;;;1.45;;
54937;SDS011;52756;52.826;6.214;2023-06-04T11:49:17;5.18;;;1.30;;
54937;SDS011;52756;52.826;6.214;2023-06-04T11:54:17;4.15;;;1.25;;
54937;SDS011;52756;52.826;6.214;2023-06-04T11:56:50;3.17;;;1.48;;
54937;SDS011;52756;52.826;6.214;2023-06-04T11:59:17;2.92;;;1.10;;
54937;SDS011;52756;52.826;6.214;2023-06-04T12:01:44;2.60;;;1.08;;
54937;SDS011;52756;52.826;6.214;2023-06-04T12:04:14;6.50;;;2.10;;
54937;SDS011;52756;52.826;6.214;2023-06-04T12:06:53;2.90;;;1.65;;
54937;SDS011;52756;52.826;6.214;2023-06-04T12:09:30;3.40;;;1.48;;
54937;SDS011;52756;52.826;6.214;2023-06-04T12:12:01;4.05;;;1.55;;
54937;SDS011;52756;52.826;6.214;2023-06-04T12:14:29;4.65;;;1.65;;
54937;SDS011;52756;52.826;6.214;2023-06-04T12:16:55;1.90;;;1.00;;
54937;SDS011;52756;52.826;6.214;2023-06-04T12:19:25;4.13;;;1.23;;
54937;SDS011;52756;52.826;6.214;2023-06-04T12:22:01;2.85;;;1.20;;
54937;SDS011;52756;52.826;6.214;2023-06-04T12:24:28;4.47;;;1.75;;
54937;SDS011;52756;52.826;6.214;2023-06-04T12:27:27;2.47;;;1.30;;
54937;SDS011;52756;52.826;6.214;2023-06-04T12:32:25;2.92;;;1.38;;
54937;SDS011;52756;52.826;6.214;2023-06-04T12:34:51;2.55;;;1.40;;
54937;SDS011;52756;52.826;6.214;2023-06-04T12:37:17;2.85;;;1.40;;
54937;SDS011;52756;52.826;6.214;2023-06-04T12:39:43;4.28;;;1.40;;
54937;SDS011;52756;52.826;6.214;2023-06-04T12:42:09;4.43;;;1.40;;
54937;SDS011;52756;52.826;6.214;2023-06-04T12:44:35;2.15;;;1.42;;
54937;SDS011;52756;52.826;6.214;2023-06-04T12:47:01;4.38;;;1.90;;
54937;SDS011;52756;52.826;6.214;2023-06-04T12:49:27;3.72;;;1.40;;
54937;SDS011;52756;52.826;6.214;2023-06-04T12:51:53;8.80;;;1.80;;
54937;SDS011;52756;52.826;6.214;2023-06-04T12:54:19;3.20;;;1.13;;
54937;SDS011;52756;52.826;6.214;2023-06-04T12:56:45;2.85;;;1.15;;
54937;SDS011;52756;52.826;6.214;2023-06-04T12:59:10;3.60;;;1.35;;
54937;SDS011;52756;52.826;6.214;2023-06-04T13:01:36;3.63;;;1.40;;
54937;SDS011;52756;52.826;6.214;2023-06-04T13:04:03;3.92;;;2.08;;
54937;SDS011;52756;52.826;6.214;2023-06-04T13:06:29;11.43;;;2.22;;
54937;SDS011;52756;52.826;6.214;2023-06-04T13:08:55;4.13;;;1.30;;
54937;SDS011;52756;52.826;6.214;2023-06-04T13:11:21;4.53;;;1.70;;
54937;SDS011;52756;52.826;6.214;2023-06-04T13:13:47;3.15;;;1.42;;
54937;SDS011;52756;52.826;6.214;2023-06-04T13:16:13;3.85;;;1.40;;
54937;SDS011;52756;52.826;6.214;2023-06-04T13:18:39;3.03;;;1.38;;
54937;SDS011;52756;52.826;6.214;2023-06-04T13:21:05;5.10;;;1.48;;
54937;SDS011;52756;52.826;6.214;2023-06-04T13:23:30;3.53;;;1.10;;
54937;SDS011;52756;52.826;6.214;2023-06-04T13:25:56;3.65;;;1.40;;
54937;SDS011;52756;52.826;6.214;2023-06-04T13:28:22;3.40;;;1.20;;
54937;SDS011;52756;52.826;6.214;2023-06-04T13:30:48;3.78;;;1.55;;
54937;SDS011;52756;52.826;6.214;2023-06-04T13:33:14;3.40;;;1.05;;
54937;SDS011;52756;52.826;6.214;2023-06-04T13:35:39;2.17;;;1.02;;
54937;SDS011;52756;52.826;6.214;2023-06-04T13:38:07;2.42;;;1.20;;
54937;SDS011;52756;52.826;6.214;2023-06-04T13:40:36;4.28;;;1.50;;
54937;SDS011;52756;52.826;6.214;2023-06-04T13:43:02;5.10;;;1.80;;
54937;SDS011;52756;52.826;6.214;2023-06-04T13:45:27;2.33;;;1.38;;
54937;SDS011;52756;52.826;6.214;2023-06-04T13:47:53;3.42;;;1.35;;
54937;SDS011;52756;52.826;6.214;2023-06-04T13:50:19;3.15;;;1.80;;
54937;SDS011;52756;52.826;6.214;2023-06-04T13:52:45;3.13;;;1.30;;
54937;SDS011;52756;52.826;6.214;2023-06-04T13:55:11;4.47;;;1.40;;
54937;SDS011;52756;52.826;6.214;2023-06-04T13:57:38;2.95;;;1.23;;
54937;SDS011;52756;52.826;6.214;2023-06-04T14:00:04;3.60;;;1.40;;
54937;SDS011;52756;52.826;6.214;2023-06-04T14:02:31;2.83;;;1.50;;
54937;SDS011;52756;52.826;6.214;2023-06-04T14:04:57;3.78;;;1.88;;
54937;SDS011;52756;52.826;6.214;2023-06-04T14:07:23;5.40;;;1.63;;
54937;SDS011;52756;52.826;6.214;2023-06-04T14:09:48;4.05;;;1.40;;
54937;SDS011;52756;52.826;6.214;2023-06-04T14:12:19;4.72;;;1.30;;
54937;SDS011;52756;52.826;6.214;2023-06-04T14:14:46;2.20;;;1.27;;
54937;SDS011;52756;52.826;6.214;2023-06-04T14:17:12;2.45;;;1.40;;
54937;SDS011;52756;52.826;6.214;2023-06-04T14:19:39;3.47;;;1.40;;
54937;SDS011;52756;52.826;6.214;2023-06-04T14:22:05;3.28;;;1.35;;
54937;SDS011;52756;52.826;6.214;2023-06-04T14:24:31;3.65;;;1.40;;
54937;SDS011;52756;52.826;6.214;2023-06-04T14:26:57;4.32;;;1.52;;
54937;SDS011;52756;52.826;6.214;2023-06-04T14:29:23;4.65;;;1.38;;
54937;SDS011;52756;52.826;6.214;2023-06-04T14:31:48;4.32;;;1.48;;
54937;SDS011;52756;52.826;6.214;2023-06-04T14:34:14;2.38;;;1.60;;
54937;SDS011;52756;52.826;6.214;2023-06-04T14:36:40;4.35;;;1.60;;
54937;SDS011;52756;52.826;6.214;2023-06-04T14:39:06;3.22;;;1.45;;
54937;SDS011;52756;52.826;6.214;2023-06-04T14:41:31;3.17;;;1.80;;
54937;SDS011;52756;52.826;6.214;2023-06-04T14:43:58;1.98;;;1.25;;
54937;SDS011;52756;52.826;6.214;2023-06-04T14:46:24;3.75;;;1.52;;
54937;SDS011;52756;52.826;6.214;2023-06-04T14:48:51;3.78;;;1.90;;
54937;SDS011;52756;52.826;6.214;2023-06-04T14:51:16;3.67;;;1.60;;
54937;SDS011;52756;52.826;6.214;2023-06-04T14:53:42;4.50;;;2.15;;
54937;SDS011;52756;52.826;6.214;2023-06-04T14:56:08;5.97;;;1.65;;
54937;SDS011;52756;52.826;6.214;2023-06-04T14:58:34;2.67;;;1.48;;
54937;SDS011;52756;52.826;6.214;2023-06-04T15:00:59;3.00;;;1.40;;
54937;SDS011;52756;52.826;6.214;2023-06-04T15:03:28;4.80;;;1.40;;
54937;SDS011;52756;52.826;6.214;2023-06-04T15:05:55;3.33;;;1.83;;